This is the latest recevied weather packets stored in our database for station/object KR8N. If no packets are shown the sender has not sent any weather packets the latest 10 day(s).
| Time | Temp. | Humidity | Pressure | Rain* | Wind** | Luminosity | Snow |
|---|---|---|---|---|---|---|---|
| 1777854157 | 10.56° C | 40% | 1018.2 hPa | 0 mm | - | 2 W/m² | - |
| 1777853855 | 10.56° C | 40% | 1018.4 hPa | 0 mm | - | 3 W/m² | - |
| 1777853552 | 11.11° C | 39% | 1018.3 hPa | 0 mm | - | 5 W/m² | - |
| 1777853248 | 11.67° C | 38% | 1018.4 hPa | 0 mm | - | 7 W/m² | - |
| 1777852945 | 12.22° C | 37% | 1018.2 hPa | 0 mm | - | 12 W/m² | - |
| 1777852644 | 12.22° C | 36% | 1018.5 hPa | 0 mm | - | 15 W/m² | - |
| 1777852341 | 12.78° C | 34% | 1018.4 hPa | 0 mm | - | 19 W/m² | - |
| 1777852038 | 12.78° C | 35% | 1018.5 hPa | 0 mm | - | 22 W/m² | - |
| 1777851736 | 13.89° C | 33% | 1018.5 hPa | 0 mm | - | 27 W/m² | - |
| 1777851433 | 13.89° C | 32% | 1018.3 hPa | 0 mm | - | 38 W/m² | - |
| 1777851129 | 13.89° C | 33% | 1018.4 hPa | 0 mm | - | 47 W/m² | - |
| 1777850826 | 14.44° C | 30% | 1018.5 hPa | 0 mm | - | 52 W/m² | - |
| 1777850523 | 14.44° C | 30% | 1018.6 hPa | 0 mm | - | 61 W/m² | - |
| 1777850221 | 14.44° C | 31% | 1018.6 hPa | 0 mm | - | 71 W/m² | - |
| 1777849917 | 14.44° C | 31% | 1018.4 hPa | 0 mm | - | 81 W/m² | - |
| 1777849614 | 14.44° C | 30% | 1018.6 hPa | 0 mm | - | 91 W/m² | - |
| 1777849311 | 15° C | 30% | 1018.2 hPa | 0 mm | - | 108 W/m² | - |
| 1777849008 | 15° C | 32% | 1018.5 hPa | 0 mm | - | 115 W/m² | - |
| 1777848708 | 15° C | 29% | 1018.6 hPa | 0 mm | - | 127 W/m² | - |
| 1777848406 | 15° C | 30% | 1018.8 hPa | 0 mm | - | 144 W/m² | - |
| 1777848104 | 15° C | 30% | 1018.5 hPa | 0 mm | - | 156 W/m² | - |
| 1777847801 | 15° C | 29% | 1018.9 hPa | 0 mm | - | 171 W/m² | - |
| 1777847498 | 14.44° C | 32% | 1018.9 hPa | 0 mm | - | 186 W/m² | - |
| 1777847195 | 14.44° C | 29% | 1018.8 hPa | 0 mm | - | 204 W/m² | - |
| 1777846892 | 14.44° C | 30% | 1018.6 hPa | 0 mm | - | 216 W/m² | - |
* Rain latest hour (hover to see other rain measurements)
** Current wind speed in m/s (hover to see current wind gust speed)